Погода METAR - Красноярск

Код аэропорта ICAO:
Кемерово, Абакан, Красноярск, Новосибирск
Код METAR: UNKL 030900Z 02002MPS 310V090 CAVOK 26/15 Q1015 R29/CLRD65 NOSIG RMK QFE736
TAF UNKL 030750Z 0309/0409 04003G10MPS 9999 SCT030CB 
     FM031500 VRB01MPS 3100 BR SCT011 
     FM040300 03003G10MPS 9999 SCT030CB 
     TEMPO 0405/0409 3100 -TSRA
       

Погода - Сейчас

Время: 2020-08-03 16:00, местное
Направление ветра: Север-северо-восток (20°)
Скорость ветра: 2 м/с
Видимость:
Температура: 26°C
Точка росы: 15°C
Атмосферное давление: 1015 гПа

Архив погоды

Время, местное Направление Скорость, м/с Температура, °C Точка росы, °C Давление, гПа
2020-08-03 16:00 ССВ (20°) 2 26 15 1015
2020-08-03 11:00 ССЗ (330°) 2 23 15 1017
2020-08-02 14:00 ССЗ (330°) 2 21 15 1018
2020-08-01 23:30 З (270°) 3 14 13 1018
2020-08-01 03:00 Штиль 0 13 12 1015
2020-07-31 07:30 ЗСЗ (290°) 4 16 13 1013
2020-07-28 20:00 З (280°) 1 17 16 1009
2020-07-27 18:00 З (280°) 4 22 11 1008
2020-07-27 06:00 СЗ (310°) 2 16 15 1004
2020-07-26 09:30 З (280°) 2 17 16 1004
2020-07-26 03:00 Штиль 0 15 14 1004
2020-07-25 06:30 Штиль 0 10 9 1010
2020-07-24 23:00 Штиль 0 12 10 1012
2020-07-24 21:30 Штиль 0 13 11 1011
2020-07-24 06:30 ЗЮЗ (260°) 2 12 10 1008
2020-07-23 22:00 ЗСЗ (290°) 3, порывы до 8 14 10 1007
2020-07-22 22:00 З (280°) 1 13 12 1004
2020-07-22 19:00 ЗСЗ (290°) 3 18 12 1003
2020-07-22 18:00 ЗСЗ (290°) 6 19 11 1003
2020-07-22 09:00 СЗ (300°) 7 15 11 1000
2020-07-22 05:30 З (280°) 5 14 13 1000
2020-07-20 15:30 В (100°) 3 24 12 1001
2020-07-19 07:00 Штиль 0 12 9 1013
2020-07-19 01:30 Штиль 0 9 8 1014
2020-07-19 00:30 Штиль 0 10 8 1014
2020-07-18 22:30 Штиль 0 12 10 1014
2020-07-18 08:00 ЗСЗ (290°) 3 14 9 1016
2020-07-18 06:30 З (280°) 3 13 10 1016
2020-07-16 03:00 СЗ (300°) 3 13 9 1019
2020-07-13 16:30 ВСВ (70°) 4 24 14 1008
2020-07-12 08:30 Штиль 0 18 14 1011
2020-07-10 12:00 Переменный 1 16 15 995
2020-07-09 13:00 СЗ (310°) 2 17 16 1002
2020-07-09 08:00 ЗЮЗ (260°) 6 19 15 1003
2020-07-09 05:30 ЗЮЗ (250°) 4 18 14 1004
2020-07-09 05:00 ЗЮЗ (250°) 5 18 14 1004
2020-07-07 21:30 З (270°) 2 18 14 1007
2020-07-07 17:00 ЗСЗ (290°) 6 23 14 1004
2020-07-07 01:00 ЗЮЗ (260°) 1 15 14 1003
2020-07-06 02:30 Штиль 0 15 14 1004
2020-07-05 17:30 Переменный 1 21 19 1005
2020-07-03 17:00 З (280°) 4 28 19 1006
2020-07-01 05:00 Штиль 0 11 10 1015
2020-06-29 08:30 СЗ (310°) 3 17 10 1017
2020-06-29 04:00 ЗСЗ (290°) 4 18 9 1015
2020-06-28 18:00 З (280°) 7 26 13 1008
2020-06-28 04:00 Переменный 1 14 14 1002
2020-06-28 03:30 Переменный 1 14 14 1002